sensor_id;sensor_type;location;lat;lon;timestamp;temperature;humidity
22706;DHT22;11520;51.198;4.468;2023-05-10T00:00:50;14.90;99.90
22706;DHT22;11520;51.198;4.468;2023-05-10T00:03:16;14.80;99.90
22706;DHT22;11520;51.198;4.468;2023-05-10T00:05:42;14.80;99.90
22706;DHT22;11520;51.198;4.468;2023-05-10T00:08:08;14.90;99.90
22706;DHT22;11520;51.198;4.468;2023-05-10T00:10:34;14.90;99.90
22706;DHT22;11520;51.198;4.468;2023-05-10T00:12:59;14.80;99.90
22706;DHT22;11520;51.198;4.468;2023-05-10T00:15:25;14.80;99.90
22706;DHT22;11520;51.198;4.468;2023-05-10T00:17:51;14.90;99.90
22706;DHT22;11520;51.198;4.468;2023-05-10T00:20:16;14.90;99.90
22706;DHT22;11520;51.198;4.468;2023-05-10T00:22:42;14.90;99.90
22706;DHT22;11520;51.198;4.468;2023-05-10T00:25:08;14.70;99.90
22706;DHT22;11520;51.198;4.468;2023-05-10T00:27:34;14.70;99.90
22706;DHT22;11520;51.198;4.468;2023-05-10T00:30:00;14.60;99.90
22706;DHT22;11520;51.198;4.468;2023-05-10T00:32:25;14.70;99.90
22706;DHT22;11520;51.198;4.468;2023-05-10T00:34:51;14.60;99.90
22706;DHT22;11520;51.198;4.468;2023-05-10T00:37:17;14.50;99.90
22706;DHT22;11520;51.198;4.468;2023-05-10T00:39:42;14.40;99.90
22706;DHT22;11520;51.198;4.468;2023-05-10T00:42:08;14.50;99.90
22706;DHT22;11520;51.198;4.468;2023-05-10T00:44:33;14.50;99.90
22706;DHT22;11520;51.198;4.468;2023-05-10T00:46:59;14.60;99.90
22706;DHT22;11520;51.198;4.468;2023-05-10T00:49:25;14.50;99.90
22706;DHT22;11520;51.198;4.468;2023-05-10T00:51:51;14.60;99.90
22706;DHT22;11520;51.198;4.468;2023-05-10T00:54:17;14.60;99.90
22706;DHT22;11520;51.198;4.468;2023-05-10T00:56:43;14.60;99.90
22706;DHT22;11520;51.198;4.468;2023-05-10T00:59:15;14.70;99.90
22706;DHT22;11520;51.198;4.468;2023-05-10T01:01:42;14.70;99.90
22706;DHT22;11520;51.198;4.468;2023-05-10T01:04:08;14.80;99.90
22706;DHT22;11520;51.198;4.468;2023-05-10T01:06:35;14.80;99.90
22706;DHT22;11520;51.198;4.468;2023-05-10T01:09:00;14.80;99.90
22706;DHT22;11520;51.198;4.468;2023-05-10T01:11:26;14.60;99.90
22706;DHT22;11520;51.198;4.468;2023-05-10T01:13:55;14.60;99.90
22706;DHT22;11520;51.198;4.468;2023-05-10T01:16:22;14.70;99.90
22706;DHT22;11520;51.198;4.468;2023-05-10T01:18:49;14.50;99.90
22706;DHT22;11520;51.198;4.468;2023-05-10T01:21:38;14.40;99.90
22706;DHT22;11520;51.198;4.468;2023-05-10T01:27:47;14.40;99.90
22706;DHT22;11520;51.198;4.468;2023-05-10T01:35:37;14.70;99.90
22706;DHT22;11520;51.198;4.468;2023-05-10T01:38:18;14.80;99.90
22706;DHT22;11520;51.198;4.468;2023-05-10T01:41:07;14.80;99.90
22706;DHT22;11520;51.198;4.468;2023-05-10T01:43:49;14.80;99.90
22706;DHT22;11520;51.198;4.468;2023-05-10T01:46:24;14.70;99.90
22706;DHT22;11520;51.198;4.468;2023-05-10T01:48:53;14.80;99.90
22706;DHT22;11520;51.198;4.468;2023-05-10T01:51:25;14.60;99.90
22706;DHT22;11520;51.198;4.468;2023-05-10T01:53:54;14.60;99.90
22706;DHT22;11520;51.198;4.468;2023-05-10T01:56:26;14.60;99.90
22706;DHT22;11520;51.198;4.468;2023-05-10T01:58:53;14.60;99.90
22706;DHT22;11520;51.198;4.468;2023-05-10T02:01:20;14.50;99.90
22706;DHT22;11520;51.198;4.468;2023-05-10T02:03:48;14.40;99.90
22706;DHT22;11520;51.198;4.468;2023-05-10T02:06:16;14.50;99.90
22706;DHT22;11520;51.198;4.468;2023-05-10T02:08:44;14.50;99.90
22706;DHT22;11520;51.198;4.468;2023-05-10T02:11:13;14.60;99.90
22706;DHT22;11520;51.198;4.468;2023-05-10T02:13:39;14.70;99.90
22706;DHT22;11520;51.198;4.468;2023-05-10T02:16:05;14.50;99.90
22706;DHT22;11520;51.198;4.468;2023-05-10T02:18:33;14.50;99.90
22706;DHT22;11520;51.198;4.468;2023-05-10T02:21:01;14.60;99.90
22706;DHT22;11520;51.198;4.468;2023-05-10T02:23:29;14.60;99.90
22706;DHT22;11520;51.198;4.468;2023-05-10T02:25:56;14.70;99.90
22706;DHT22;11520;51.198;4.468;2023-05-10T02:28:23;14.60;99.90
22706;DHT22;11520;51.198;4.468;2023-05-10T02:30:51;14.50;99.90
22706;DHT22;11520;51.198;4.468;2023-05-10T02:33:17;14.50;99.90
22706;DHT22;11520;51.198;4.468;2023-05-10T02:35:43;14.40;99.90
22706;DHT22;11520;51.198;4.468;2023-05-10T02:38:10;14.40;99.90
22706;DHT22;11520;51.198;4.468;2023-05-10T02:40:37;14.30;99.90
22706;DHT22;11520;51.198;4.468;2023-05-10T02:43:04;14.30;99.90
22706;DHT22;11520;51.198;4.468;2023-05-10T02:45:32;14.30;99.90
22706;DHT22;11520;51.198;4.468;2023-05-10T02:48:00;14.30;99.90
22706;DHT22;11520;51.198;4.468;2023-05-10T02:50:28;14.40;99.90
22706;DHT22;11520;51.198;4.468;2023-05-10T02:53:02;14.40;99.90
22706;DHT22;11520;51.198;4.468;2023-05-10T02:55:32;14.50;99.90
22706;DHT22;11520;51.198;4.468;2023-05-10T02:58:00;14.40;99.90
22706;DHT22;11520;51.198;4.468;2023-05-10T03:00:26;14.40;99.90
22706;DHT22;11520;51.198;4.468;2023-05-10T03:02:52;14.50;99.90
22706;DHT22;11520;51.198;4.468;2023-05-10T03:05:18;14.40;99.90
22706;DHT22;11520;51.198;4.468;2023-05-10T03:07:44;14.40;99.90
22706;DHT22;11520;51.198;4.468;2023-05-10T03:10:10;14.40;99.90
22706;DHT22;11520;51.198;4.468;2023-05-10T03:15:47;14.20;99.90
22706;DHT22;11520;51.198;4.468;2023-05-10T03:18:21;14.10;99.90
22706;DHT22;11520;51.198;4.468;2023-05-10T03:20:49;14.00;99.90
22706;DHT22;11520;51.198;4.468;2023-05-10T03:23:22;14.00;99.90
22706;DHT22;11520;51.198;4.468;2023-05-10T03:25:52;14.10;99.90
22706;DHT22;11520;51.198;4.468;2023-05-10T03:28:18;14.10;99.90
22706;DHT22;11520;51.198;4.468;2023-05-10T03:30:46;14.20;99.90
22706;DHT22;11520;51.198;4.468;2023-05-10T03:33:12;14.10;99.90
22706;DHT22;11520;51.198;4.468;2023-05-10T03:35:38;14.20;99.90
22706;DHT22;11520;51.198;4.468;2023-05-10T03:38:04;14.10;99.90
22706;DHT22;11520;51.198;4.468;2023-05-10T03:40:30;14.00;99.90
22706;DHT22;11520;51.198;4.468;2023-05-10T03:42:57;14.00;99.90
22706;DHT22;11520;51.198;4.468;2023-05-10T03:45:23;14.00;99.90
22706;DHT22;11520;51.198;4.468;2023-05-10T03:47:49;14.10;99.90
22706;DHT22;11520;51.198;4.468;2023-05-10T03:50:14;14.20;99.90
22706;DHT22;11520;51.198;4.468;2023-05-10T03:52:40;14.20;99.90
22706;DHT22;11520;51.198;4.468;2023-05-10T03:55:06;14.20;99.90
22706;DHT22;11520;51.198;4.468;2023-05-10T03:57:33;14.20;99.90
22706;DHT22;11520;51.198;4.468;2023-05-10T03:59:59;14.20;99.90
22706;DHT22;11520;51.198;4.468;2023-05-10T04:02:25;14.20;99.90
22706;DHT22;11520;51.198;4.468;2023-05-10T04:04:50;14.10;99.90
22706;DHT22;11520;51.198;4.468;2023-05-10T04:07:16;14.10;99.90
22706;DHT22;11520;51.198;4.468;2023-05-10T04:09:42;14.10;99.90
22706;DHT22;11520;51.198;4.468;2023-05-10T04:12:07;14.10;99.90
22706;DHT22;11520;51.198;4.468;2023-05-10T04:14:33;14.10;99.90
22706;DHT22;11520;51.198;4.468;2023-05-10T04:16:58;14.20;99.90
22706;DHT22;11520;51.198;4.468;2023-05-10T04:19:24;14.30;99.90
22706;DHT22;11520;51.198;4.468;2023-05-10T04:21:53;14.30;99.90
22706;DHT22;11520;51.198;4.468;2023-05-10T04:24:19;14.20;99.90
22706;DHT22;11520;51.198;4.468;2023-05-10T04:26:45;14.00;99.90
22706;DHT22;11520;51.198;4.468;2023-05-10T04:29:10;13.90;99.90
22706;DHT22;11520;51.198;4.468;2023-05-10T04:31:36;13.90;99.90
22706;DHT22;11520;51.198;4.468;2023-05-10T04:34:02;13.90;99.90
22706;DHT22;11520;51.198;4.468;2023-05-10T04:36:27;14.00;99.90
22706;DHT22;11520;51.198;4.468;2023-05-10T04:38:54;14.00;99.90
22706;DHT22;11520;51.198;4.468;2023-05-10T04:41:19;14.00;99.90
22706;DHT22;11520;51.198;4.468;2023-05-10T04:43:46;14.10;99.90
22706;DHT22;11520;51.198;4.468;2023-05-10T04:46:11;14.10;99.90
22706;DHT22;11520;51.198;4.468;2023-05-10T04:48:37;14.20;99.90
22706;DHT22;11520;51.198;4.468;2023-05-10T04:51:03;14.20;99.90
22706;DHT22;11520;51.198;4.468;2023-05-10T04:53:29;14.20;99.90
22706;DHT22;11520;51.198;4.468;2023-05-10T04:55:55;14.30;99.90
22706;DHT22;11520;51.198;4.468;2023-05-10T04:58:20;14.30;99.90
22706;DHT22;11520;51.198;4.468;2023-05-10T05:00:46;14.20;99.90
22706;DHT22;11520;51.198;4.468;2023-05-10T05:03:12;14.20;99.90
22706;DHT22;11520;51.198;4.468;2023-05-10T05:05:37;14.20;99.90
22706;DHT22;11520;51.198;4.468;2023-05-10T05:08:03;14.20;99.90
22706;DHT22;11520;51.198;4.468;2023-05-10T05:10:29;14.30;99.90
22706;DHT22;11520;51.198;4.468;2023-05-10T05:12:55;14.30;99.90
22706;DHT22;11520;51.198;4.468;2023-05-10T05:15:20;14.30;99.90
22706;DHT22;11520;51.198;4.468;2023-05-10T05:17:46;14.40;99.90
22706;DHT22;11520;51.198;4.468;2023-05-10T05:20:12;14.40;99.90
22706;DHT22;11520;51.198;4.468;2023-05-10T05:22:38;14.50;99.90
22706;DHT22;11520;51.198;4.468;2023-05-10T05:25:05;14.70;99.90
22706;DHT22;11520;51.198;4.468;2023-05-10T05:27:31;14.80;99.90
22706;DHT22;11520;51.198;4.468;2023-05-10T05:29:58;14.60;99.90
22706;DHT22;11520;51.198;4.468;2023-05-10T05:32:24;14.70;99.90
22706;DHT22;11520;51.198;4.468;2023-05-10T05:34:50;14.70;99.90
22706;DHT22;11520;51.198;4.468;2023-05-10T05:37:17;14.60;99.90
22706;DHT22;11520;51.198;4.468;2023-05-10T05:39:43;14.60;99.90
22706;DHT22;11520;51.198;4.468;2023-05-10T05:42:10;14.60;99.90
22706;DHT22;11520;51.198;4.468;2023-05-10T05:44:36;14.80;99.90
22706;DHT22;11520;51.198;4.468;2023-05-10T05:47:01;15.20;99.90
22706;DHT22;11520;51.198;4.468;2023-05-10T05:49:27;15.50;99.90
22706;DHT22;11520;51.198;4.468;2023-05-10T05:51:53;15.90;99.90
22706;DHT22;11520;51.198;4.468;2023-05-10T05:54:18;16.40;99.90
22706;DHT22;11520;51.198;4.468;2023-05-10T05:56:44;17.00;99.90
22706;DHT22;11520;51.198;4.468;2023-05-10T05:59:10;18.10;99.90
22706;DHT22;11520;51.198;4.468;2023-05-10T06:01:36;18.90;99.90
22706;DHT22;11520;51.198;4.468;2023-05-10T06:04:02;19.20;99.90
22706;DHT22;11520;51.198;4.468;2023-05-10T06:06:28;19.10;99.90
22706;DHT22;11520;51.198;4.468;2023-05-10T06:08:53;18.50;99.90
22706;DHT22;11520;51.198;4.468;2023-05-10T06:11:19;18.20;99.90
22706;DHT22;11520;51.198;4.468;2023-05-10T06:13:46;18.00;99.90
22706;DHT22;11520;51.198;4.468;2023-05-10T06:16:12;17.70;99.90
22706;DHT22;11520;51.198;4.468;2023-05-10T06:18:38;17.60;99.90
22706;DHT22;11520;51.198;4.468;2023-05-10T06:21:04;17.60;99.90
22706;DHT22;11520;51.198;4.468;2023-05-10T06:23:29;17.80;99.90
22706;DHT22;11520;51.198;4.468;2023-05-10T06:25:55;18.00;99.90
22706;DHT22;11520;51.198;4.468;2023-05-10T06:28:21;18.10;99.90
22706;DHT22;11520;51.198;4.468;2023-05-10T06:30:47;18.30;99.90
22706;DHT22;11520;51.198;4.468;2023-05-10T06:33:13;18.50;99.90
22706;DHT22;11520;51.198;4.468;2023-05-10T06:35:38;18.10;99.90
22706;DHT22;11520;51.198;4.468;2023-05-10T06:38:04;18.10;99.90
22706;DHT22;11520;51.198;4.468;2023-05-10T06:40:30;17.80;99.90
22706;DHT22;11520;51.198;4.468;2023-05-10T06:42:55;17.70;99.90
22706;DHT22;11520;51.198;4.468;2023-05-10T06:45:21;17.30;99.90
22706;DHT22;11520;51.198;4.468;2023-05-10T06:47:47;16.80;99.90
22706;DHT22;11520;51.198;4.468;2023-05-10T06:50:12;16.90;99.90
22706;DHT22;11520;51.198;4.468;2023-05-10T06:52:38;16.80;99.90
22706;DHT22;11520;51.198;4.468;2023-05-10T06:55:05;16.60;99.90
22706;DHT22;11520;51.198;4.468;2023-05-10T06:57:31;16.70;99.90
22706;DHT22;11520;51.198;4.468;2023-05-10T07:00:00;16.80;99.90
22706;DHT22;11520;51.198;4.468;2023-05-10T07:02:26;16.60;99.90
22706;DHT22;11520;51.198;4.468;2023-05-10T07:04:51;16.60;99.90
22706;DHT22;11520;51.198;4.468;2023-05-10T07:07:18;16.50;99.90
22706;DHT22;11520;51.198;4.468;2023-05-10T07:09:43;16.40;99.90
22706;DHT22;11520;51.198;4.468;2023-05-10T07:12:09;16.50;99.90
22706;DHT22;11520;51.198;4.468;2023-05-10T07:14:35;16.60;99.90
22706;DHT22;11520;51.198;4.468;2023-05-10T07:17:00;16.60;99.90
22706;DHT22;11520;51.198;4.468;2023-05-10T07:19:27;16.50;99.90
22706;DHT22;11520;51.198;4.468;2023-05-10T07:21:55;16.50;99.90
22706;DHT22;11520;51.198;4.468;2023-05-10T07:24:20;16.70;99.90
22706;DHT22;11520;51.198;4.468;2023-05-10T07:26:46;16.80;99.90
22706;DHT22;11520;51.198;4.468;2023-05-10T07:29:12;16.60;99.90
22706;DHT22;11520;51.198;4.468;2023-05-10T07:31:37;16.70;99.90
22706;DHT22;11520;51.198;4.468;2023-05-10T07:34:03;16.60;99.90
22706;DHT22;11520;51.198;4.468;2023-05-10T07:36:29;16.90;99.90
22706;DHT22;11520;51.198;4.468;2023-05-10T07:38:54;17.20;99.90
22706;DHT22;11520;51.198;4.468;2023-05-10T07:41:20;17.50;99.90
22706;DHT22;11520;51.198;4.468;2023-05-10T07:43:46;17.90;99.90
22706;DHT22;11520;51.198;4.468;2023-05-10T07:46:12;18.80;99.90
22706;DHT22;11520;51.198;4.468;2023-05-10T07:48:37;21.00;99.90
22706;DHT22;11520;51.198;4.468;2023-05-10T07:51:03;23.20;99.90
22706;DHT22;11520;51.198;4.468;2023-05-10T07:53:29;24.90;99.90
22706;DHT22;11520;51.198;4.468;2023-05-10T07:55:57;25.60;99.90
22706;DHT22;11520;51.198;4.468;2023-05-10T07:58:26;27.70;98.80
22706;DHT22;11520;51.198;4.468;2023-05-10T08:00:51;29.20;88.60
22706;DHT22;11520;51.198;4.468;2023-05-10T08:03:17;30.90;77.10
22706;DHT22;11520;51.198;4.468;2023-05-10T08:05:43;30.70;70.30
22706;DHT22;11520;51.198;4.468;2023-05-10T08:08:09;30.10;70.50
22706;DHT22;11520;51.198;4.468;2023-05-10T08:10:34;31.10;69.40
22706;DHT22;11520;51.198;4.468;2023-05-10T08:13:00;31.30;63.30
22706;DHT22;11520;51.198;4.468;2023-05-10T08:15:26;29.20;69.30
22706;DHT22;11520;51.198;4.468;2023-05-10T08:17:52;28.30;74.60
22706;DHT22;11520;51.198;4.468;2023-05-10T08:20:18;28.30;73.60
22706;DHT22;11520;51.198;4.468;2023-05-10T08:22:45;27.40;74.20
22706;DHT22;11520;51.198;4.468;2023-05-10T08:25:11;26.20;82.00
22706;DHT22;11520;51.198;4.468;2023-05-10T08:27:36;26.30;82.50
22706;DHT22;11520;51.198;4.468;2023-05-10T08:30:02;26.60;81.90
22706;DHT22;11520;51.198;4.468;2023-05-10T08:32:28;26.50;82.70
22706;DHT22;11520;51.198;4.468;2023-05-10T08:34:53;26.00;84.30
22706;DHT22;11520;51.198;4.468;2023-05-10T08:37:19;25.70;87.70
22706;DHT22;11520;51.198;4.468;2023-05-10T08:39:45;25.40;91.00
22706;DHT22;11520;51.198;4.468;2023-05-10T08:42:19;25.70;90.00
22706;DHT22;11520;51.198;4.468;2023-05-10T08:44:48;25.70;85.80
22706;DHT22;11520;51.198;4.468;2023-05-10T08:47:16;25.70;86.50
22706;DHT22;11520;51.198;4.468;2023-05-10T08:49:43;26.70;83.60
22706;DHT22;11520;51.198;4.468;2023-05-10T08:52:11;28.70;76.20
22706;DHT22;11520;51.198;4.468;2023-05-10T08:54:38;30.60;67.40
22706;DHT22;11520;51.198;4.468;2023-05-10T08:57:04;31.10;63.40
22706;DHT22;11520;51.198;4.468;2023-05-10T08:59:30;30.80;61.50
22706;DHT22;11520;51.198;4.468;2023-05-10T09:01:59;29.60;63.70
22706;DHT22;11520;51.198;4.468;2023-05-10T09:04:25;28.50;67.50
22706;DHT22;11520;51.198;4.468;2023-05-10T09:06:51;27.80;70.60
22706;DHT22;11520;51.198;4.468;2023-05-10T09:09:18;27.20;72.40
22706;DHT22;11520;51.198;4.468;2023-05-10T09:11:45;26.00;77.50
22706;DHT22;11520;51.198;4.468;2023-05-10T09:14:12;24.70;86.50
22706;DHT22;11520;51.198;4.468;2023-05-10T09:16:38;23.70;93.70
22706;DHT22;11520;51.198;4.468;2023-05-10T09:19:04;23.10;97.80
22706;DHT22;11520;51.198;4.468;2023-05-10T09:21:30;22.80;99.90
22706;DHT22;11520;51.198;4.468;2023-05-10T09:23:56;22.50;99.90
22706;DHT22;11520;51.198;4.468;2023-05-10T09:26:23;22.10;99.90
22706;DHT22;11520;51.198;4.468;2023-05-10T09:28:55;21.70;99.90
22706;DHT22;11520;51.198;4.468;2023-05-10T09:31:21;21.40;99.90
22706;DHT22;11520;51.198;4.468;2023-05-10T09:33:48;21.10;99.90
22706;DHT22;11520;51.198;4.468;2023-05-10T09:36:15;21.30;99.90
22706;DHT22;11520;51.198;4.468;2023-05-10T09:38:48;21.10;99.90
22706;DHT22;11520;51.198;4.468;2023-05-10T09:41:18;20.20;99.90
22706;DHT22;11520;51.198;4.468;2023-05-10T09:43:45;19.60;99.90
22706;DHT22;11520;51.198;4.468;2023-05-10T09:46:11;19.40;99.90
22706;DHT22;11520;51.198;4.468;2023-05-10T09:48:45;19.20;99.90
22706;DHT22;11520;51.198;4.468;2023-05-10T09:51:18;19.20;99.90
22706;DHT22;11520;51.198;4.468;2023-05-10T09:53:44;19.40;99.90
22706;DHT22;11520;51.198;4.468;2023-05-10T09:56:11;19.80;99.90
22706;DHT22;11520;51.198;4.468;2023-05-10T09:58:37;20.30;99.90
22706;DHT22;11520;51.198;4.468;2023-05-10T10:01:11;20.30;99.90
22706;DHT22;11520;51.198;4.468;2023-05-10T10:03:42;20.50;99.90
22706;DHT22;11520;51.198;4.468;2023-05-10T10:06:08;20.20;99.90
22706;DHT22;11520;51.198;4.468;2023-05-10T10:08:34;19.40;99.90
22706;DHT22;11520;51.198;4.468;2023-05-10T10:11:00;19.30;99.90
22706;DHT22;11520;51.198;4.468;2023-05-10T10:13:25;19.20;99.90
22706;DHT22;11520;51.198;4.468;2023-05-10T10:15:52;20.10;99.90
22706;DHT22;11520;51.198;4.468;2023-05-10T10:18:19;21.10;99.90
22706;DHT22;11520;51.198;4.468;2023-05-10T10:20:49;22.20;99.90
22706;DHT22;11520;51.198;4.468;2023-05-10T10:23:15;23.50;99.90
22706;DHT22;11520;51.198;4.468;2023-05-10T10:25:40;23.90;99.90
22706;DHT22;11520;51.198;4.468;2023-05-10T10:28:16;24.20;99.90
22706;DHT22;11520;51.198;4.468;2023-05-10T10:30:48;24.00;99.90
22706;DHT22;11520;51.198;4.468;2023-05-10T10:33:39;23.50;99.90
22706;DHT22;11520;51.198;4.468;2023-05-10T10:36:10;22.40;99.90
22706;DHT22;11520;51.198;4.468;2023-05-10T10:38:59;21.20;99.90
22706;DHT22;11520;51.198;4.468;2023-05-10T10:41:39;20.30;99.90
22706;DHT22;11520;51.198;4.468;2023-05-10T10:47:07;20.20;99.90
22706;DHT22;11520;51.198;4.468;2023-05-10T10:52:23;21.10;99.90
22706;DHT22;11520;51.198;4.468;2023-05-10T11:08:09;19.50;99.90
22706;DHT22;11520;51.198;4.468;2023-05-10T11:10:35;19.40;99.90
22706;DHT22;11520;51.198;4.468;2023-05-10T11:13:05;19.20;99.90
22706;DHT22;11520;51.198;4.468;2023-05-10T11:15:36;19.10;99.90
22706;DHT22;11520;51.198;4.468;2023-05-10T11:18:24;18.80;99.90
22706;DHT22;11520;51.198;4.468;2023-05-10T11:23:30;18.40;99.90
22706;DHT22;11520;51.198;4.468;2023-05-10T11:25:56;18.60;99.90
22706;DHT22;11520;51.198;4.468;2023-05-10T11:28:22;18.40;99.90
22706;DHT22;11520;51.198;4.468;2023-05-10T11:30:48;18.30;99.90
22706;DHT22;11520;51.198;4.468;2023-05-10T11:33:18;18.20;99.90
22706;DHT22;11520;51.198;4.468;2023-05-10T11:35:45;18.20;99.90
22706;DHT22;11520;51.198;4.468;2023-05-10T11:38:12;18.10;99.90
22706;DHT22;11520;51.198;4.468;2023-05-10T11:40:38;18.20;99.90
22706;DHT22;11520;51.198;4.468;2023-05-10T11:43:05;18.20;99.90
22706;DHT22;11520;51.198;4.468;2023-05-10T11:45:35;18.00;99.90
22706;DHT22;11520;51.198;4.468;2023-05-10T11:48:02;18.10;99.90
22706;DHT22;11520;51.198;4.468;2023-05-10T11:50:28;18.00;99.90
22706;DHT22;11520;51.198;4.468;2023-05-10T11:52:55;17.90;99.90
22706;DHT22;11520;51.198;4.468;2023-05-10T11:55:21;17.80;99.90
22706;DHT22;11520;51.198;4.468;2023-05-10T11:57:48;17.70;99.90
22706;DHT22;11520;51.198;4.468;2023-05-10T12:00:16;17.80;99.90
22706;DHT22;11520;51.198;4.468;2023-05-10T12:02:42;17.80;99.90
22706;DHT22;11520;51.198;4.468;2023-05-10T12:05:10;17.60;99.90
22706;DHT22;11520;51.198;4.468;2023-05-10T12:07:35;17.60;99.90
22706;DHT22;11520;51.198;4.468;2023-05-10T12:10:12;17.50;99.90
22706;DHT22;11520;51.198;4.468;2023-05-10T12:12:44;17.40;99.90
22706;DHT22;11520;51.198;4.468;2023-05-10T12:15:31;17.20;99.90
22706;DHT22;11520;51.198;4.468;2023-05-10T12:17:57;17.10;99.90
22706;DHT22;11520;51.198;4.468;2023-05-10T12:20:26;17.00;99.90
22706;DHT22;11520;51.198;4.468;2023-05-10T12:22:54;17.00;99.90
22706;DHT22;11520;51.198;4.468;2023-05-10T12:25:23;17.00;99.90
22706;DHT22;11520;51.198;4.468;2023-05-10T12:30:27;17.20;99.90
22706;DHT22;11520;51.198;4.468;2023-05-10T12:32:53;17.10;99.90
22706;DHT22;11520;51.198;4.468;2023-05-10T12:35:19;17.10;99.90
22706;DHT22;11520;51.198;4.468;2023-05-10T12:37:52;17.10;99.90
22706;DHT22;11520;51.198;4.468;2023-05-10T12:40:19;17.10;99.90
22706;DHT22;11520;51.198;4.468;2023-05-10T12:42:45;17.30;99.90
22706;DHT22;11520;51.198;4.468;2023-05-10T12:45:11;17.30;99.90
22706;DHT22;11520;51.198;4.468;2023-05-10T12:47:37;17.30;99.90
22706;DHT22;11520;51.198;4.468;2023-05-10T12:50:03;17.30;99.90
22706;DHT22;11520;51.198;4.468;2023-05-10T12:52:29;17.40;99.90
22706;DHT22;11520;51.198;4.468;2023-05-10T12:54:55;17.30;99.90
22706;DHT22;11520;51.198;4.468;2023-05-10T12:57:21;17.30;99.90
22706;DHT22;11520;51.198;4.468;2023-05-10T12:59:47;17.40;99.90
22706;DHT22;11520;51.198;4.468;2023-05-10T13:02:12;17.60;99.90
22706;DHT22;11520;51.198;4.468;2023-05-10T13:04:40;17.70;99.90
22706;DHT22;11520;51.198;4.468;2023-05-10T13:07:06;17.50;99.90
22706;DHT22;11520;51.198;4.468;2023-05-10T13:09:32;17.50;99.90
22706;DHT22;11520;51.198;4.468;2023-05-10T13:11:58;17.40;99.90
22706;DHT22;11520;51.198;4.468;2023-05-10T13:14:24;17.40;99.90
22706;DHT22;11520;51.198;4.468;2023-05-10T13:16:50;17.60;99.90
22706;DHT22;11520;51.198;4.468;2023-05-10T13:19:15;17.80;99.90
22706;DHT22;11520;51.198;4.468;2023-05-10T13:21:41;18.00;99.90
22706;DHT22;11520;51.198;4.468;2023-05-10T13:24:07;18.10;99.90
22706;DHT22;11520;51.198;4.468;2023-05-10T13:26:33;18.20;99.90
22706;DHT22;11520;51.198;4.468;2023-05-10T13:28:58;18.20;99.90
22706;DHT22;11520;51.198;4.468;2023-05-10T13:31:25;18.20;99.90
22706;DHT22;11520;51.198;4.468;2023-05-10T13:33:51;18.40;99.90
22706;DHT22;11520;51.198;4.468;2023-05-10T13:36:16;18.30;99.90
22706;DHT22;11520;51.198;4.468;2023-05-10T13:38:42;18.30;99.90
22706;DHT22;11520;51.198;4.468;2023-05-10T13:41:07;18.10;99.90
22706;DHT22;11520;51.198;4.468;2023-05-10T13:43:33;18.10;99.90
22706;DHT22;11520;51.198;4.468;2023-05-10T13:45:58;18.20;99.90
22706;DHT22;11520;51.198;4.468;2023-05-10T13:48:26;18.10;99.90
22706;DHT22;11520;51.198;4.468;2023-05-10T13:50:52;17.90;99.90
22706;DHT22;11520;51.198;4.468;2023-05-10T13:53:18;17.80;99.90
22706;DHT22;11520;51.198;4.468;2023-05-10T13:55:43;17.90;99.90
22706;DHT22;11520;51.198;4.468;2023-05-10T13:58:10;18.00;99.90
22706;DHT22;11520;51.198;4.468;2023-05-10T14:00:37;17.80;99.90
22706;DHT22;11520;51.198;4.468;2023-05-10T14:03:02;17.80;99.90
22706;DHT22;11520;51.198;4.468;2023-05-10T14:05:30;17.70;99.90
22706;DHT22;11520;51.198;4.468;2023-05-10T14:07:56;17.70;99.90
22706;DHT22;11520;51.198;4.468;2023-05-10T14:10:22;17.80;99.90
22706;DHT22;11520;51.198;4.468;2023-05-10T14:12:50;17.80;99.90
22706;DHT22;11520;51.198;4.468;2023-05-10T14:15:16;18.00;99.90
22706;DHT22;11520;51.198;4.468;2023-05-10T14:17:41;18.10;99.90
22706;DHT22;11520;51.198;4.468;2023-05-10T14:20:07;18.30;99.90
22706;DHT22;11520;51.198;4.468;2023-05-10T14:22:34;18.50;99.90
22706;DHT22;11520;51.198;4.468;2023-05-10T14:24:59;18.60;99.90
22706;DHT22;11520;51.198;4.468;2023-05-10T14:27:25;18.80;99.90
22706;DHT22;11520;51.198;4.468;2023-05-10T14:29:51;18.90;99.90
22706;DHT22;11520;51.198;4.468;2023-05-10T14:32:16;19.00;99.90
22706;DHT22;11520;51.198;4.468;2023-05-10T14:34:42;19.20;99.90
22706;DHT22;11520;51.198;4.468;2023-05-10T14:37:10;19.20;99.90
22706;DHT22;11520;51.198;4.468;2023-05-10T14:39:36;19.10;99.90
22706;DHT22;11520;51.198;4.468;2023-05-10T14:42:02;19.00;99.90
22706;DHT22;11520;51.198;4.468;2023-05-10T14:44:28;19.10;99.90
22706;DHT22;11520;51.198;4.468;2023-05-10T14:46:53;19.20;99.90
22706;DHT22;11520;51.198;4.468;2023-05-10T14:49:19;19.20;99.90
22706;DHT22;11520;51.198;4.468;2023-05-10T14:51:48;19.30;99.90
22706;DHT22;11520;51.198;4.468;2023-05-10T14:54:14;19.30;99.90
22706;DHT22;11520;51.198;4.468;2023-05-10T14:56:43;19.50;99.90
22706;DHT22;11520;51.198;4.468;2023-05-10T14:59:09;19.40;99.90
22706;DHT22;11520;51.198;4.468;2023-05-10T15:01:34;19.40;99.90
22706;DHT22;11520;51.198;4.468;2023-05-10T15:04:03;19.50;99.90
22706;DHT22;11520;51.198;4.468;2023-05-10T15:06:33;19.30;99.90
22706;DHT22;11520;51.198;4.468;2023-05-10T15:09:00;19.30;99.90
22706;DHT22;11520;51.198;4.468;2023-05-10T15:11:26;19.30;99.90
22706;DHT22;11520;51.198;4.468;2023-05-10T15:13:53;18.40;99.90
22706;DHT22;11520;51.198;4.468;2023-05-10T15:16:18;17.90;99.90
22706;DHT22;11520;51.198;4.468;2023-05-10T15:18:44;17.50;99.90
22706;DHT22;11520;51.198;4.468;2023-05-10T15:21:12;17.20;99.90
22706;DHT22;11520;51.198;4.468;2023-05-10T15:23:37;16.70;99.90
22706;DHT22;11520;51.198;4.468;2023-05-10T15:26:03;16.80;99.90
22706;DHT22;11520;51.198;4.468;2023-05-10T15:28:29;17.00;99.90
22706;DHT22;11520;51.198;4.468;2023-05-10T15:30:55;17.20;99.90
22706;DHT22;11520;51.198;4.468;2023-05-10T15:33:21;17.30;99.90
22706;DHT22;11520;51.198;4.468;2023-05-10T15:35:47;17.30;99.90
22706;DHT22;11520;51.198;4.468;2023-05-10T15:38:13;17.40;99.90
22706;DHT22;11520;51.198;4.468;2023-05-10T15:40:39;17.40;99.90
22706;DHT22;11520;51.198;4.468;2023-05-10T15:43:05;17.50;99.90
22706;DHT22;11520;51.198;4.468;2023-05-10T15:45:30;17.30;99.90
22706;DHT22;11520;51.198;4.468;2023-05-10T15:47:57;17.00;99.90
22706;DHT22;11520;51.198;4.468;2023-05-10T15:50:24;16.90;99.90
22706;DHT22;11520;51.198;4.468;2023-05-10T15:52:50;17.10;99.90
22706;DHT22;11520;51.198;4.468;2023-05-10T15:55:16;17.20;99.90
22706;DHT22;11520;51.198;4.468;2023-05-10T15:57:42;17.00;99.90
22706;DHT22;11520;51.198;4.468;2023-05-10T16:00:09;16.90;99.90
22706;DHT22;11520;51.198;4.468;2023-05-10T16:02:35;17.20;99.90
22706;DHT22;11520;51.198;4.468;2023-05-10T16:05:01;17.40;99.90